Terminal Aerodrome Forecast
Issued by NWS Tuscon, AZ

Home | Current Version | Previous Version | Text Only | Print | Product List | Glossary On
Versions: 1 2 3 4 5 6 7 8 9 10 11 12 13
000
FTUS45 KTWC 052321
TAFDUG
TAF
KDUG 052321Z 0600/0624 26015G20KT P6SM SCT070 BKN100
     FM060300 35008KT P6SM SCT100
     FM061000 VRB03KT P6SM SCT200
     FM061600 19011G18KT P6SM SCT200
     FM061900 22018G27KT P6SM BKN200=

USA.gov is the U.S. government's official web portal to all federal, state and local government web resources and services.